KCVN/CVN METAR and TAF weather

Enter ICAO airport designator
Station Type Date Time Source
KCVN METAR 2020/04/04 04:56 UTC NOAA

KCVN 040456Z AUTO 07007KT 10SM CLR 02/M02 A3010 RMK AO2 SLP205 T00171022 FZRANO


Station Type Date Time Source
KCVN Decoded METAR 2020/04/04 04:56 UTC NOAA

Clovis, Clovis Municipal Airport, NM, United States (KCVN) 34-26N 103-05W
Apr 04, 2020 - 12:56 AM EDT / 2020.04.04 0456 UTC
Wind: from the ENE (070 degrees) at 8 MPH (7 KT):0
Visibility: 10 mile(s):0
Sky conditions: clear
Temperature: 35.1 F (1.7 C)
Dew Point: 28.0 F (-2.2 C)
Relative Humidity: 75%
Pressure (altimeter): 30.1 in. Hg (1019 hPa)
ob: KCVN 040456Z AUTO 07007KT 10SM CLR 02/M02 A3010 RMK AO2 SLP205 T00171022 FZRANO
cycle: 5

Station Type Date Time Source
KCVN TAF UTC NOAA

Error!

Example: see airport list